createdAt,value
2023-01-30T00:00:07.658Z,0.59
2023-01-30T00:05:09.462Z,0.63
2023-01-30T00:10:11.364Z,0.64
2023-01-30T00:15:13.023Z,0.67
2023-01-30T00:20:15.828Z,0.70
2023-01-30T00:25:17.503Z,0.71
2023-01-30T00:30:20.155Z,0.68
2023-01-30T00:35:22.761Z,0.68
2023-01-30T00:40:25.765Z,0.70
2023-01-30T00:45:45.605Z,0.73
2023-01-30T00:50:47.540Z,0.76
2023-01-30T00:55:51.887Z,0.80
2023-01-30T01:00:53.864Z,0.84
2023-01-30T01:05:55.558Z,0.82
2023-01-30T01:10:57.341Z,0.86
2023-01-30T01:15:58.910Z,0.87
2023-01-30T01:21:00.434Z,0.88
2023-01-30T01:26:02.871Z,0.87
2023-01-30T01:31:11.582Z,0.87
2023-01-30T01:36:20.016Z,0.90
2023-01-30T01:41:31.626Z,0.94
2023-01-30T01:46:43.598Z,0.95
2023-01-30T01:51:57.300Z,0.97
2023-01-30T01:57:03.274Z,0.97
2023-01-30T02:02:10.312Z,0.97
2023-01-30T02:07:11.909Z,0.96
2023-01-30T02:12:15.390Z,0.95
2023-01-30T02:17:17.082Z,0.97
2023-01-30T02:22:51.317Z,0.97
2023-01-30T02:27:58.758Z,0.95
2023-01-30T02:33:10.859Z,0.97
2023-01-30T02:38:47.345Z,0.98
2023-01-30T02:44:05.664Z,1.00
2023-01-30T02:49:14.946Z,1.00
2023-01-30T02:54:16.913Z,1.01
2023-01-30T02:59:29.510Z,1.00
2023-01-30T03:04:45.843Z,1.00
2023-01-30T03:10:19.098Z,0.98
2023-01-30T03:15:45.624Z,0.92
2023-01-30T03:20:47.333Z,0.90
2023-01-30T03:25:49.584Z,0.90
2023-01-30T03:30:51.211Z,0.86
2023-01-30T03:35:53.077Z,0.84
2023-01-30T03:40:54.736Z,0.83
2023-01-30T03:45:56.345Z,0.82
2023-01-30T03:50:57.821Z,0.81
2023-01-30T03:55:59.716Z,0.81
2023-01-30T04:01:01.257Z,0.77
2023-01-30T04:06:03.072Z,0.70
2023-01-30T04:11:05.402Z,0.64
2023-01-30T04:16:25.358Z,0.53
2023-01-30T04:21:27.008Z,0.41
2023-01-30T04:26:29.004Z,0.37
2023-01-30T04:44:14.540Z,0.51
2023-01-30T04:49:16.215Z,0.55
2023-01-30T04:54:17.730Z,0.58
2023-01-30T04:59:19.184Z,0.59
2023-01-30T05:04:20.906Z,0.60
2023-01-30T05:09:22.384Z,0.66
2023-01-30T05:14:23.986Z,0.67
2023-01-30T05:19:25.492Z,0.64
2023-01-30T05:24:27.356Z,0.66
2023-01-30T05:29:28.865Z,0.67
2023-01-30T05:34:30.618Z,0.65
2023-01-30T05:39:32.523Z,0.63
2023-01-30T05:44:34.032Z,0.57
2023-01-30T05:49:35.591Z,0.58
2023-01-30T05:54:37.204Z,0.54
2023-01-30T05:59:38.712Z,0.51
2023-01-30T06:04:40.564Z,0.49
2023-01-30T06:09:42.378Z,0.49
2023-01-30T06:14:43.903Z,0.46
2023-01-30T06:19:48.554Z,0.48
2023-01-30T06:24:50.075Z,0.43
2023-01-30T06:29:51.554Z,0.38
2023-01-30T06:34:53.057Z,0.39
2023-01-30T06:39:54.575Z,0.38
2023-01-30T06:44:56.489Z,0.35
2023-01-30T06:49:58.017Z,0.38
2023-01-30T06:54:59.981Z,0.40
2023-01-30T07:00:01.662Z,0.31
2023-01-30T07:05:05.135Z,0.24
2023-01-30T07:10:09.185Z,0.22
2023-01-30T07:15:11.484Z,0.22
2023-01-30T07:20:13.215Z,0.23
2023-01-30T07:25:15.210Z,0.20
2023-01-30T07:30:16.996Z,0.15
2023-01-30T07:35:19.469Z,0.16
2023-01-30T07:40:22.304Z,0.15
2023-01-30T07:45:24.720Z,0.09
2023-01-30T07:50:27.076Z,-0.05
2023-01-30T07:55:28.622Z,-0.13
2023-01-30T08:00:30.626Z,-0.20
2023-01-30T08:05:32.276Z,-0.21
2023-01-30T08:10:34.002Z,-0.15
2023-01-30T08:15:35.548Z,-0.13
2023-01-30T08:20:37.502Z,-0.17
2023-01-30T08:25:39.367Z,-0.18
2023-01-30T08:30:43.900Z,-0.18
2023-01-30T08:35:45.801Z,-0.19
2023-01-30T08:40:47.289Z,-0.24
2023-01-30T08:45:49.138Z,-0.30
2023-01-30T08:50:54.526Z,-0.35
2023-01-30T08:55:58.170Z,-0.38
2023-01-30T09:01:05.847Z,-0.39
2023-01-30T09:06:08.498Z,-0.41
2023-01-30T09:11:11.419Z,-0.38
2023-01-30T09:16:13.296Z,-0.39
2023-01-30T09:21:14.957Z,-0.37
2023-01-30T09:26:16.614Z,-0.25
2023-01-30T09:31:18.287Z,-0.17
2023-01-30T09:36:20.140Z,-0.13
2023-01-30T09:41:33.764Z,-0.08
2023-01-30T09:46:48.367Z,-0.04
2023-01-30T09:52:31.197Z,-0.03
2023-01-30T09:57:32.886Z,0.05
2023-01-30T10:02:51.091Z,0.15
2023-01-30T10:08:15.799Z,0.29
2023-01-30T10:13:45.319Z,0.29
2023-01-30T10:19:07.838Z,0.29
2023-01-30T10:24:26.838Z,0.37
2023-01-30T10:29:33.123Z,0.36
2023-01-30T10:34:38.495Z,0.30
2023-01-30T10:39:54.807Z,0.21
2023-01-30T10:45:10.820Z,0.21
2023-01-30T10:50:50.323Z,0.29
2023-01-30T10:56:01.132Z,0.26
2023-01-30T11:01:26.727Z,0.23
2023-01-30T11:06:29.357Z,0.27
2023-01-30T11:11:39.850Z,0.33
2023-01-30T11:16:47.777Z,0.36
2023-01-30T11:22:01.815Z,0.36
2023-01-30T11:27:18.762Z,0.34
2023-01-30T11:32:27.320Z,0.37
2023-01-30T11:37:35.774Z,0.39
2023-01-30T11:42:45.668Z,0.35
2023-01-30T11:47:57.543Z,0.35
2023-01-30T11:53:04.246Z,0.37
2023-01-30T11:58:09.403Z,0.40
2023-01-30T12:03:14.887Z,0.47
2023-01-30T12:08:17.506Z,0.52
2023-01-30T12:13:31.309Z,0.52
2023-01-30T12:18:38.629Z,0.62
2023-01-30T12:23:46.266Z,0.63
2023-01-30T12:29:12.306Z,0.63
2023-01-30T12:34:14.125Z,0.63
2023-01-30T12:39:24.576Z,0.64
2023-01-30T12:44:44.346Z,0.62
2023-01-30T12:50:21.496Z,0.62
2023-01-30T12:55:28.792Z,0.65
2023-01-30T13:00:53.512Z,0.64
2023-01-30T13:06:10.231Z,0.57
2023-01-30T13:11:29.427Z,0.54
2023-01-30T13:17:05.063Z,0.54
2023-01-30T13:22:20.290Z,0.61
2023-01-30T13:27:23.515Z,0.63
2023-01-30T13:32:35.838Z,0.65
2023-01-30T13:37:38.474Z,0.71
2023-01-30T13:42:53.141Z,0.77
2023-01-30T13:48:25.220Z,0.77
2023-01-30T13:53:32.786Z,0.82
2023-01-30T13:58:44.435Z,0.87
2023-01-30T14:03:46.151Z,0.95
2023-01-30T14:08:49.921Z,0.98
2023-01-30T14:13:54.177Z,1.01
2023-01-30T14:18:55.708Z,1.02
2023-01-30T14:24:00.811Z,1.08
2023-01-30T14:29:02.379Z,1.06
2023-01-30T14:34:52.751Z,1.05
2023-01-30T14:39:57.001Z,1.08
2023-01-30T14:44:59.919Z,1.07
2023-01-30T14:50:02.849Z,1.07
2023-01-30T14:55:05.737Z,1.11
2023-01-30T15:00:19.675Z,1.12
2023-01-30T15:05:30.812Z,1.16
2023-01-30T15:10:38.137Z,1.18
2023-01-30T15:16:17.471Z,1.12
2023-01-30T15:21:39.833Z,1.07
2023-01-30T15:26:56.581Z,1.05
2023-01-30T15:32:03.677Z,1.06
2023-01-30T15:37:05.424Z,1.05
2023-01-30T15:42:08.863Z,1.05
2023-01-30T15:47:38.294Z,1.08
2023-01-30T15:52:46.482Z,1.14
2023-01-30T15:57:52.417Z,1.17
2023-01-30T16:02:55.274Z,1.23
2023-01-30T16:07:58.989Z,1.27
2023-01-30T16:13:03.779Z,1.29
2023-01-30T16:18:21.936Z,1.36
2023-01-30T16:23:43.076Z,1.39
2023-01-30T16:28:45.253Z,1.42
2023-01-30T16:33:51.408Z,1.44
2023-01-30T16:38:55.185Z,1.46
2023-01-30T16:44:23.289Z,1.47
2023-01-30T16:49:27.431Z,1.45
2023-01-30T16:54:31.294Z,1.45
2023-01-30T16:59:35.243Z,1.44
2023-01-30T17:04:41.277Z,1.42
2023-01-30T17:09:46.097Z,1.46
2023-01-30T17:14:47.761Z,1.49
2023-01-30T17:19:49.242Z,1.48
2023-01-30T17:24:50.810Z,1.44
2023-01-30T17:29:52.354Z,1.46
2023-01-30T17:34:55.687Z,1.53
2023-01-30T17:39:57.217Z,1.54
2023-01-30T17:44:59.891Z,1.57
2023-01-30T17:50:01.391Z,1.62
2023-01-30T17:55:02.950Z,1.68
2023-01-30T18:00:05.322Z,1.65
2023-01-30T18:05:06.983Z,1.65
2023-01-30T18:10:14.454Z,1.64
2023-01-30T18:15:16.566Z,1.65
2023-01-30T18:20:20.358Z,1.65
2023-01-30T18:25:22.367Z,1.68
2023-01-30T18:30:25.022Z,1.78
2023-01-30T18:35:26.521Z,1.84
2023-01-30T18:40:28.367Z,1.88
2023-01-30T18:45:29.869Z,1.86
2023-01-30T18:50:31.721Z,1.91
2023-01-30T18:55:33.353Z,1.97
2023-01-30T19:00:34.848Z,1.95
2023-01-30T19:05:36.700Z,1.90
2023-01-30T19:10:38.238Z,1.91
2023-01-30T19:15:39.735Z,1.92
2023-01-30T19:20:41.541Z,1.94
2023-01-30T19:25:43.397Z,1.95
2023-01-30T19:30:45.293Z,1.98
2023-01-30T19:35:47.525Z,2.05
2023-01-30T19:40:49.388Z,2.12
2023-01-30T19:46:00.353Z,2.12
2023-01-30T19:51:14.050Z,2.18
2023-01-30T19:56:18.868Z,2.21
2023-01-30T20:01:23.472Z,2.21
2023-01-30T20:06:28.045Z,2.19
2023-01-30T20:11:30.716Z,2.21
2023-01-30T20:16:34.993Z,2.19
2023-01-30T20:21:37.212Z,2.20
2023-01-30T20:26:40.033Z,2.20
2023-01-30T20:31:41.882Z,2.22
2023-01-30T20:36:43.572Z,2.18
2023-01-30T20:41:45.371Z,2.21
2023-01-30T20:46:47.750Z,2.23
2023-01-30T20:51:51.984Z,2.18
2023-01-30T20:56:54.318Z,2.16
2023-01-30T21:01:56.309Z,2.15
2023-01-30T21:06:57.835Z,2.21
2023-01-30T21:11:59.324Z,2.24
2023-01-30T21:17:01.484Z,2.26
2023-01-30T21:22:09.841Z,2.28
2023-01-30T21:27:20.288Z,2.25
2023-01-30T21:32:22.529Z,2.27
2023-01-30T21:37:42.797Z,2.26
2023-01-30T21:43:02.863Z,2.25
2023-01-30T21:48:04.825Z,2.29
2023-01-30T21:53:13.995Z,2.25
2023-01-30T21:58:15.621Z,2.30
2023-01-30T22:03:17.330Z,2.33
2023-01-30T22:08:19.869Z,2.29
2023-01-30T22:13:21.856Z,2.30
2023-01-30T22:18:23.433Z,2.24
2023-01-30T22:23:31.015Z,2.18
2023-01-30T22:28:35.269Z,2.13
2023-01-30T22:33:37.327Z,2.13
2023-01-30T22:38:43.326Z,2.16
2023-01-30T22:43:47.746Z,2.19
2023-01-30T22:48:49.741Z,2.24
2023-01-30T22:53:56.874Z,2.23
2023-01-30T22:58:58.391Z,2.19
2023-01-30T23:04:10.798Z,2.16
2023-01-30T23:09:17.623Z,2.18
2023-01-30T23:14:19.138Z,2.20
2023-01-30T23:19:20.672Z,2.29
2023-01-30T23:24:22.533Z,2.40
2023-01-30T23:29:24.761Z,2.45
2023-01-30T23:34:26.477Z,2.49
2023-01-30T23:39:28.564Z,2.53
2023-01-30T23:44:30.102Z,2.57
2023-01-30T23:49:31.701Z,2.65
2023-01-30T23:54:33.222Z,2.71
2023-01-30T23:59:36.298Z,2.76
